Time;durP1;ratioP1;P1;durP2;ratioP2;P2;SDS_P1;SDS_P2;PMS_P1;PMS_P2;Temp;Humidity;BMP_temperature;BMP_pressure;BME280_temperature;BME280_humidity;BME280_pressure;Samples;Min_cycle;Max_cycle;Signal;HPM_P1;HPM_P2
2023/01/12 00:01:58;;;;;;;9.48;6.35;;;;;;;6.29;100.00;100340.59;5052421;28;20393;-72
2023/01/12 00:04:29;;;;;;;10.88;6.80;;;;;;;6.23;100.00;100340.41;5052759;28;20036;-72
2023/01/12 00:06:58;;;;;;;9.80;5.85;;;;;;;6.25;100.00;100345.59;5051815;28;20055;-71
2023/01/12 00:09:25;;;;;;;13.25;7.28;;;;;;;6.25;100.00;100352.06;5051890;28;20036;-71
2023/01/12 00:11:55;;;;;;;10.10;5.93;;;;;;;6.18;100.00;100362.91;5051469;28;20118;-71
2023/01/12 00:14:26;;;;;;;8.95;5.60;;;;;;;6.20;100.00;100363.22;5051730;28;20044;-71
2023/01/12 00:16:52;;;;;;;9.07;5.60;;;;;;;6.10;100.00;100358.72;5051700;28;20139;-70
2023/01/12 00:19:21;;;;;;;8.75;5.68;;;;;;;6.16;100.00;100365.41;5051052;28;20032;-71
2023/01/12 00:21:55;;;;;;;13.15;6.00;;;;;;;6.17;100.00;100367.00;5051765;28;20402;-71
2023/01/12 00:24:37;;;;;;;7.38;5.05;;;;;;;6.15;100.00;100372.31;5051797;28;20029;-69
2023/01/12 00:27:11;;;;;;;9.70;6.40;;;;;;;6.11;100.00;100366.00;5068475;28;20159;-71
2023/01/12 00:29:36;;;;;;;12.35;5.75;;;;;;;6.10;100.00;100376.53;5074878;28;20472;-71
2023/01/12 00:32:04;;;;;;;10.45;6.45;;;;;;;6.08;100.00;100378.25;5075641;28;20059;-71
2023/01/12 00:34:29;;;;;;;8.55;5.20;;;;;;;6.11;100.00;100383.00;5058058;28;20036;-71
2023/01/12 00:36:56;;;;;;;9.13;6.43;;;;;;;6.09;100.00;100377.78;5075430;28;20086;-72
2023/01/12 00:39:21;;;;;;;10.88;6.07;;;;;;;5.99;100.00;100381.03;5056523;28;20086;-71
2023/01/12 00:47:22;;;;;;;8.38;5.22;;;;;;;5.97;100.00;100400.53;5059656;28;20089;-70
2023/01/12 00:49:49;;;;;;;7.82;5.78;;;;;;;5.96;100.00;100407.47;5075107;28;20352;-70
2023/01/12 00:52:17;;;;;;;7.38;5.93;;;;;;;6.00;100.00;100408.91;5072262;28;20139;-70
2023/01/12 00:54:43;;;;;;;10.20;6.10;;;;;;;5.84;100.00;100391.28;5057801;28;20405;-71
2023/01/12 00:57:13;;;;;;;12.50;8.65;;;;;;;5.92;100.00;100421.78;5076075;28;20024;-70
2023/01/12 00:59:40;;;;;;;8.18;4.93;;;;;;;5.93;100.00;100417.69;5075751;28;20040;-71
2023/01/12 01:02:07;;;;;;;8.90;5.25;;;;;;;5.87;100.00;100424.38;5057767;28;20024;-70
2023/01/12 01:04:37;;;;;;;8.18;5.97;;;;;;;5.91;100.00;100428.69;5057641;28;20103;-69
2023/01/12 01:07:11;;;;;;;8.95;6.30;;;;;;;5.94;100.00;100427.00;5057921;28;20474;-71
2023/01/12 01:09:39;;;;;;;11.30;6.03;;;;;;;5.95;100.00;100431.38;5075481;28;20021;-71
2023/01/12 01:12:05;;;;;;;10.63;6.57;;;;;;;5.95;100.00;100426.50;5074741;28;20024;-71
2023/01/12 01:14:32;;;;;;;11.05;6.40;;;;;;;5.85;100.00;100429.72;5075730;28;20048;-71
2023/01/12 01:16:58;;;;;;;12.00;6.45;;;;;;;5.77;100.00;100423.50;5057084;28;20473;-72
2023/01/12 01:19:24;;;;;;;9.85;6.35;;;;;;;5.71;100.00;100423.28;5075053;28;20434;-71
2023/01/12 01:21:51;;;;;;;11.93;6.32;;;;;;;5.66;100.00;100426.69;5057062;28;20481;-71
2023/01/12 01:24:18;;;;;;;11.30;6.45;;;;;;;5.66;100.00;100434.41;5074929;28;20028;-72
2023/01/12 01:26:44;;;;;;;9.90;6.03;;;;;;;5.63;100.00;100438.97;5074710;28;20055;-72
2023/01/12 01:29:10;;;;;;;11.18;6.70;;;;;;;5.56;100.00;100436.34;5074944;28;20028;-72
2023/01/12 01:31:37;;;;;;;14.00;7.50;;;;;;;5.48;100.00;100437.84;5075080;28;20030;-71
2023/01/12 01:34:04;;;;;;;11.40;6.45;;;;;;;5.47;100.00;100439.09;5074738;28;20417;-72
2023/01/12 01:36:29;;;;;;;11.25;6.85;;;;;;;5.46;100.00;100440.31;5074920;28;20115;-72
2023/01/12 01:38:56;;;;;;;10.63;6.63;;;;;;;5.40;100.00;100430.81;5073781;28;20034;-73
2023/01/12 01:41:28;;;;;;;13.70;6.85;;;;;;;5.44;100.00;100440.00;5074875;28;20051;-72
2023/01/12 01:44:33;;;;;;;12.30;7.07;;;;;;;5.40;100.00;100442.13;5057636;28;20028;-70
2023/01/12 01:47:18;;;;;;;15.48;7.63;;;;;;;5.35;100.00;100445.56;5061777;28;20051;-71
2023/01/12 01:49:50;;;;;;;11.52;6.28;;;;;;;5.34;100.00;100444.78;5074445;28;20016;-71
2023/01/12 01:52:17;;;;;;;11.88;6.90;;;;;;;5.30;100.00;100437.63;5074642;28;20021;-71
2023/01/12 01:54:54;;;;;;;10.57;6.50;;;;;;;5.33;100.00;100443.19;5074610;28;20107;-71
2023/01/12 01:57:19;;;;;;;9.40;6.40;;;;;;;5.36;100.00;100442.25;5074440;28;20519;-76
2023/01/12 01:59:50;;;;;;;10.25;5.85;;;;;;;5.43;100.00;100443.28;5039430;28;20115;-74
2023/01/12 02:02:17;;;;;;;9.85;5.93;;;;;;;5.44;100.00;100431.50;5056366;28;20115;-76
2023/01/12 02:04:44;;;;;;;11.38;6.05;;;;;;;5.51;100.00;100436.91;5074018;28;20491;-75
2023/01/12 02:07:10;;;;;;;10.68;5.95;;;;;;;5.57;100.00;100439.97;5073603;28;20396;-76
2023/01/12 02:09:40;;;;;;;10.45;5.93;;;;;;;5.61;100.00;100444.28;5074307;28;20020;-76
2023/01/12 02:17:54;;;;;;;11.13;6.13;;;;;;;5.64;100.00;100442.59;5058483;28;20047;-74
2023/01/12 02:20:50;;;;;;;9.95;6.85;;;;;;;5.62;100.00;100448.72;5072115;28;20072;-75
2023/01/12 02:23:31;;;;;;;9.45;6.07;;;;;;;5.60;100.00;100442.69;5072652;28;20021;-76
2023/01/12 02:26:37;;;;;;;11.05;6.32;;;;;;;5.55;100.00;100448.94;5072411;28;20060;-74
2023/01/12 02:29:14;;;;;;;18.52;6.63;;;;;;;5.52;100.00;100451.88;5054832;28;20032;-75
2023/01/12 02:32:06;;;;;;;10.73;5.90;;;;;;;5.49;100.00;100444.31;5072669;28;20032;-75
2023/01/12 02:34:32;;;;;;;11.18;6.88;;;;;;;5.49;100.00;100449.97;5054734;28;20077;-75
2023/01/12 02:37:20;;;;;;;11.45;6.20;;;;;;;5.47;100.00;100444.75;5072427;28;20111;-75
2023/01/12 02:39:58;;;;;;;10.05;6.10;;;;;;;5.44;100.00;100451.34;5072619;28;20032;-75
2023/01/12 02:42:46;;;;;;;12.50;6.53;;;;;;;5.40;100.00;100447.03;5072654;28;20036;-76
2023/01/12 02:45:25;;;;;;;7.53;5.45;;;;;;;5.34;100.00;100453.28;5054184;28;20105;-76
2023/01/12 02:48:20;;;;;;;10.40;6.75;;;;;;;5.27;100.00;100449.84;5072245;28;20060;-75
2023/01/12 02:50:50;;;;;;;13.18;7.00;;;;;;;5.21;100.00;100451.66;5072277;28;20043;-75
2023/01/12 02:54:04;;;;;;;9.65;6.25;;;;;;;5.15;100.00;100447.81;5073330;28;20500;-75
2023/01/12 02:56:41;;;;;;;11.77;6.07;;;;;;;5.08;100.00;100446.00;5067651;28;20055;-76
2023/01/12 02:59:24;;;;;;;12.57;6.30;;;;;;;5.07;100.00;100446.44;5055986;28;20028;-75
2023/01/12 03:02:00;;;;;;;11.13;6.70;;;;;;;5.06;100.00;100453.34;5074557;28;20101;-76
2023/01/12 03:04:28;;;;;;;13.85;6.30;;;;;;;5.07;100.00;100452.91;5055440;28;20033;-75
2023/01/12 03:06:54;;;;;;;13.30;6.35;;;;;;;5.08;100.00;100456.53;5055679;28;20074;-75
2023/01/12 03:09:27;;;;;;;11.75;5.97;;;;;;;5.07;100.00;100455.72;5073275;28;20024;-75
2023/01/12 03:12:29;;;;;;;14.13;7.63;;;;;;;5.03;100.00;100455.06;5039222;28;20040;-76
2023/01/12 03:14:57;;;;;;;13.10;6.17;;;;;;;4.99;100.00;100448.72;5072665;28;20048;-75
2023/01/12 03:17:30;;;;;;;14.93;7.03;;;;;;;4.94;100.00;100454.94;5038882;28;20086;-75
2023/01/12 03:20:05;;;;;;;16.58;6.55;;;;;;;4.89;100.00;100461.94;5039454;28;20028;-75
2023/01/12 03:22:40;;;;;;;11.25;6.65;;;;;;;4.88;100.00;100456.72;5073077;28;20469;-75
2023/01/12 03:25:10;;;;;;;8.93;5.80;;;;;;;4.85;100.00;100449.16;5072982;28;20050;-75
2023/01/12 03:27:38;;;;;;;11.63;5.68;;;;;;;4.85;100.00;100446.31;5051609;28;20144;-75
2023/01/12 03:30:22;;;;;;;16.17;6.13;;;;;;;4.83;100.00;100445.97;5035706;28;20036;-76
2023/01/12 03:32:56;;;;;;;10.85;6.43;;;;;;;4.81;100.00;100449.22;5051843;28;20474;-76
2023/01/12 03:35:25;;;;;;;13.30;6.28;;;;;;;4.81;100.00;100445.59;5051807;28;20108;-76
2023/01/12 03:37:57;;;;;;;10.73;6.60;;;;;;;4.80;100.00;100449.69;5051690;28;20064;-76
2023/01/12 03:40:30;;;;;;;18.27;6.70;;;;;;;4.83;100.00;100448.78;5053067;28;20028;-75
2023/01/12 03:43:12;;;;;;;10.85;6.13;;;;;;;4.82;100.00;100453.66;5052038;28;20441;-75
2023/01/12 03:45:54;;;;;;;7.53;5.05;;;;;;;4.81;100.00;100437.91;5053220;28;20051;-75
2023/01/12 03:48:37;;;;;;;11.65;5.32;;;;;;;4.79;100.00;100440.41;5053420;28;20044;-76
2023/01/12 03:51:07;;;;;;;9.57;5.22;;;;;;;4.81;100.00;100443.56;5052016;28;20021;-76
2023/01/12 03:53:35;;;;;;;11.75;5.22;;;;;;;4.78;100.00;100441.66;5053127;28;20021;-76
2023/01/12 03:56:10;;;;;;;10.93;6.25;;;;;;;4.77;100.00;100442.88;5035016;28;20115;-76
2023/01/12 03:58:37;;;;;;;7.35;4.88;;;;;;;4.74;100.00;100443.00;5052626;28;20082;-75
2023/01/12 04:01:03;;;;;;;8.25;5.53;;;;;;;4.68;100.00;100437.09;5052305;28;20025;-75
2023/01/12 04:03:30;;;;;;;11.77;6.22;;;;;;;4.69;100.00;100449.22;5055776;28;20029;-76
2023/01/12 04:05:55;;;;;;;10.77;5.65;;;;;;;4.64;100.00;100453.38;5056866;28;20048;-75
2023/01/12 04:08:21;;;;;;;11.95;5.25;;;;;;;4.57;100.00;100452.78;5055458;28;20466;-76
2023/01/12 04:10:46;;;;;;;10.35;5.32;;;;;;;4.53;100.00;100463.41;5055967;28;20477;-75
2023/01/12 04:13:12;;;;;;;10.60;6.05;;;;;;;4.41;100.00;100457.25;5055611;28;20025;-75
2023/01/12 04:15:41;;;;;;;11.13;6.45;;;;;;;4.34;100.00;100462.34;5055883;28;20025;-76
2023/01/12 04:18:10;;;;;;;9.02;5.47;;;;;;;4.25;100.00;100459.34;5055358;28;20020;-76
2023/01/12 04:20:36;;;;;;;8.48;5.15;;;;;;;4.22;100.00;100465.88;5056342;28;20044;-75
2023/01/12 04:23:02;;;;;;;10.75;6.63;;;;;;;4.15;100.00;100464.06;5056154;28;20492;-75
2023/01/12 04:25:27;;;;;;;12.50;6.25;;;;;;;4.10;100.00;100463.81;5057173;28;20060;-75
2023/01/12 04:28:01;;;;;;;11.55;6.30;;;;;;;4.01;100.00;100461.63;5076300;28;20035;-76
2023/01/12 04:30:27;;;;;;;12.10;6.80;;;;;;;3.97;100.00;100464.53;5076366;28;20097;-76
2023/01/12 04:32:54;;;;;;;13.95;5.25;;;;;;;3.90;100.00;100459.06;5076230;28;20024;-75
2023/01/12 04:35:20;;;;;;;11.85;5.93;;;;;;;3.88;100.00;100461.53;5075781;28;20032;-76
2023/01/12 04:37:46;;;;;;;10.77;5.88;;;;;;;3.84;100.00;100451.53;5075936;28;20020;-75
2023/01/12 04:40:13;;;;;;;9.90;5.95;;;;;;;3.80;100.00;100456.47;5075903;28;20027;-75
2023/01/12 04:43:06;;;;;;;10.13;6.80;;;;;;;3.76;100.00;100462.22;5075936;28;20141;-75
2023/01/12 04:45:34;;;;;;;14.02;6.22;;;;;;;3.74;100.00;100470.34;5075669;28;20028;-76
2023/01/12 04:48:11;;;;;;;8.50;5.47;;;;;;;3.70;100.00;100477.31;5075598;28;20028;-75
2023/01/12 04:50:37;;;;;;;12.25;6.47;;;;;;;3.67;100.00;100476.19;5075527;28;20025;-75
2023/01/12 04:53:04;;;;;;;8.75;6.03;;;;;;;3.49;100.00;100458.88;5075574;28;20423;-75
2023/01/12 04:55:29;;;;;;;9.95;5.90;;;;;;;3.58;100.00;100473.16;5075884;28;20036;-77
2023/01/12 04:57:56;;;;;;;12.38;7.05;;;;;;;3.55;100.00;100465.59;5075804;28;20017;-76
2023/01/12 05:00:21;;;;;;;11.50;6.50;;;;;;;3.52;100.00;100464.44;5075742;28;20036;-76
2023/01/12 05:02:47;;;;;;;10.65;6.38;;;;;;;3.51;100.00;100456.41;5057813;28;20025;-76
2023/01/12 05:05:13;;;;;;;9.05;5.43;;;;;;;3.46;100.00;100449.25;5075255;28;20056;-75
2023/01/12 05:10:21;;;;;;;13.10;8.38;;;;;;;3.48;100.00;100451.63;5075697;28;20021;-75
2023/01/12 05:10:23;;;;;;;13.32;7.05;;;;;;;3.46;100.00;100451.28;5075212;28;20059;-75
2023/01/12 05:12:49;;;;;;;11.07;6.35;;;;;;;3.42;100.00;100447.75;5075076;28;20373;-76
2023/01/12 05:15:14;;;;;;;12.00;5.97;;;;;;;3.37;100.00;100446.25;5075068;28;20025;-76
2023/01/12 05:17:42;;;;;;;10.18;5.78;;;;;;;3.37;100.00;100446.25;5074537;28;20025;-75
2023/01/12 05:20:08;;;;;;;9.15;6.18;;;;;;;3.36;100.00;100441.03;5074980;28;20067;-75
2023/01/12 05:22:33;;;;;;;13.20;7.63;;;;;;;3.35;100.00;100437.41;5075212;28;20024;-75
2023/01/12 05:25:00;;;;;;;14.10;7.13;;;;;;;3.34;100.00;100437.84;5074932;28;20553;-74
2023/01/12 05:27:26;;;;;;;10.00;6.25;;;;;;;3.32;100.00;100434.69;5071617;28;20098;-75
2023/01/12 05:29:51;;;;;;;11.88;6.22;;;;;;;3.30;100.00;100440.75;5074968;28;20466;-76
2023/01/12 05:32:18;;;;;;;12.50;6.13;;;;;;;3.29;100.00;100430.69;5056820;28;20070;-76
2023/01/12 05:34:44;;;;;;;13.75;7.10;;;;;;;3.27;100.00;100438.81;5075164;28;20031;-76
2023/01/12 05:37:10;;;;;;;14.60;5.00;;;;;;;3.29;100.00;100442.00;5073613;28;20036;-75
2023/01/12 05:39:36;;;;;;;9.27;5.47;;;;;;;3.32;100.00;100434.69;5074695;28;20108;-75
2023/01/12 05:44:46;;;;;;;11.00;6.03;;;;;;;3.31;100.00;100430.25;5068788;28;20125;-76
2023/01/12 05:47:12;;;;;;;14.20;4.68;;;;;;;3.31;100.00;100433.88;5094841;28;20035;-76
2023/01/12 05:49:38;;;;;;;7.80;4.78;;;;;;;3.35;100.00;100439.44;5094866;28;20411;-76
2023/01/12 05:52:04;;;;;;;9.73;5.75;;;;;;;3.35;100.00;100445.09;5093430;28;20036;-76
2023/01/12 05:54:30;;;;;;;12.05;5.88;;;;;;;3.35;100.00;100445.88;5094802;28;20035;-74
2023/01/12 05:56:55;;;;;;;10.13;4.43;;;;;;;3.37;100.00;100448.28;5094641;28;20023;-74
2023/01/12 05:59:21;;;;;;;14.48;5.43;;;;;;;3.36;100.00;100455.94;5094459;28;20035;-73
2023/01/12 06:01:47;;;;;;;7.80;5.25;;;;;;;3.36;100.00;100449.50;5095321;28;20371;-74
2023/01/12 06:04:15;;;;;;;15.25;5.57;;;;;;;3.32;100.00;100448.81;5093450;28;20040;-74
2023/01/12 06:06:42;;;;;;;10.05;5.47;;;;;;;3.29;100.00;100455.31;5094764;28;20036;-73
2023/01/12 06:09:09;;;;;;;11.80;5.20;;;;;;;3.27;100.00;100460.63;5094933;28;20468;-76
2023/01/12 06:14:30;;;;;;;8.98;6.10;;;;;;;3.19;100.00;100449.47;5094692;28;20094;-78
2023/01/12 06:16:56;;;;;;;11.85;6.03;;;;;;;3.21;100.00;100449.84;5059688;28;20020;-77
2023/01/12 06:19:22;;;;;;;12.57;5.75;;;;;;;3.21;100.00;100446.22;5094648;28;20539;-75
2023/01/12 06:21:51;;;;;;;13.23;6.47;;;;;;;3.21;100.00;100438.56;5075757;28;20097;-78
2023/01/12 06:24:19;;;;;;;16.88;7.25;;;;;;;3.19;100.00;100429.72;5093906;28;20380;-79
2023/01/12 06:26:51;;;;;;;10.50;6.45;;;;;;;3.19;100.00;100428.91;5094068;28;20121;-80
2023/01/12 06:29:16;;;;;;;16.60;7.38;;;;;;;3.16;100.00;100430.59;5076462;28;20478;-82
2023/01/12 06:31:42;;;;;;;11.80;6.43;;;;;;;3.14;100.00;100447.19;5091973;28;20069;-81
2023/01/12 06:34:09;;;;;;;12.75;6.35;;;;;;;3.11;100.00;100448.06;5094316;28;20390;-76
2023/01/12 06:36:34;;;;;;;14.30;7.32;;;;;;;3.10;100.00;100454.94;5090787;28;20042;-76
2023/01/12 06:39:11;;;;;;;13.68;6.57;;;;;;;3.10;100.00;100449.28;5094029;28;20103;-77
2023/01/12 06:44:23;;;;;;;16.15;6.93;;;;;;;3.15;100.00;100445.94;5093972;28;20061;-77
2023/01/12 06:46:50;;;;;;;15.13;7.15;;;;;;;3.13;100.00;100448.41;5094081;28;20028;-79
2023/01/12 06:49:15;;;;;;;10.98;6.18;;;;;;;3.14;100.00;100444.34;5091601;28;20024;-79
2023/01/12 06:51:56;;;;;;;15.30;6.60;;;;;;;3.15;100.00;100442.31;5093643;28;20016;-80
2023/01/12 06:54:21;;;;;;;14.07;7.03;;;;;;;3.15;100.00;100442.31;5094788;28;20076;-78
2023/01/12 06:56:47;;;;;;;13.48;5.75;;;;;;;3.15;100.00;100433.84;5092945;28;20039;-80
2023/01/12 06:59:13;;;;;;;17.30;7.50;;;;;;;3.10;100.00;100426.72;5075737;28;20498;-86
2023/01/12 07:01:45;;;;;;;14.45;7.88;;;;;;;3.06;100.00;100431.66;5094212;28;20023;-86
2023/01/12 07:04:11;;;;;;;16.52;7.90;;;;;;;3.13;100.00;100425.81;5094201;28;20043;-83
2023/01/12 07:06:37;;;;;;;19.75;8.23;;;;;;;3.13;100.00;100428.63;5076539;28;20024;-82
2023/01/12 07:09:08;;;;;;;19.42;8.65;;;;;;;3.15;100.00;100420.53;5093372;28;20458;-83
2023/01/12 07:11:33;;;;;;;10.75;6.45;;;;;;;3.16;100.00;100424.16;5058923;28;20024;-84
2023/01/12 07:14:00;;;;;;;12.23;6.53;;;;;;;3.17;100.00;100429.38;5074970;28;20032;-84
2023/01/12 07:16:29;;;;;;;17.55;6.95;;;;;;;3.17;100.00;100437.84;5093553;28;20491;-80
2023/01/12 07:18:55;;;;;;;15.60;6.53;;;;;;;3.19;100.00;100445.84;5093441;28;20023;-79
2023/01/12 07:21:21;;;;;;;27.65;8.38;;;;;;;3.21;100.00;100437.75;5093671;28;20031;-82
2023/01/12 07:23:47;;;;;;;15.93;6.38;;;;;;;3.22;100.00;100430.88;5094521;28;20020;-80
2023/01/12 07:26:13;;;;;;;15.70;6.10;;;;;;;3.26;100.00;100437.22;5093674;28;20040;-85
2023/01/12 07:28:41;;;;;;;17.55;6.63;;;;;;;3.30;100.00;100432.28;5093936;28;20069;-82
2023/01/12 07:31:09;;;;;;;14.23;6.80;;;;;;;3.29;100.00;100429.91;5094614;28;20024;-85
2023/01/12 07:33:37;;;;;;;16.92;6.65;;;;;;;3.30;100.00;100429.47;5075761;28;20071;-86
2023/01/12 07:36:04;;;;;;;22.85;7.45;;;;;;;3.36;100.00;100439.00;5094350;28;20016;-81
2023/01/12 07:38:31;;;;;;;18.92;7.20;;;;;;;3.37;100.00;100443.44;5079351;28;20068;-81
2023/01/12 07:40:59;;;;;;;17.75;8.05;;;;;;;3.41;100.00;100446.97;5096604;28;20059;-83
2023/01/12 07:43:24;;;;;;;15.05;7.97;;;;;;;3.40;100.00;100438.91;5097165;28;20027;-84
2023/01/12 07:45:49;;;;;;;14.10;7.32;;;;;;;3.46;100.00;100437.16;5097458;28;20032;-83
2023/01/12 07:48:16;;;;;;;13.70;6.22;;;;;;;3.49;100.00;100433.44;5097360;28;20401;-81
2023/01/12 07:50:41;;;;;;;15.20;6.90;;;;;;;3.52;100.00;100436.19;5089732;28;20040;-81
2023/01/12 07:53:09;;;;;;;11.13;6.70;;;;;;;3.61;100.00;100436.38;5053553;28;20020;-81
2023/01/12 07:55:38;;;;;;;17.00;6.38;;;;;;;3.68;100.00;100426.91;5069776;28;20133;-80
2023/01/12 07:58:07;;;;;;;9.90;5.18;;;;;;;3.76;100.00;100438.81;5089454;28;20028;-80
2023/01/12 08:00:33;;;;;;;18.70;7.18;;;;;;;3.79;100.00;100435.09;5096742;28;20044;-81
2023/01/12 08:03:12;;;;;;;13.05;5.82;;;;;;;3.84;100.00;100435.38;5097010;28;20028;-80
2023/01/12 08:05:40;;;;;;;10.15;4.95;;;;;;;3.93;100.00;100431.94;5091053;28;20097;-81
2023/01/12 08:08:06;;;;;;;13.25;5.95;;;;;;;3.98;100.00;100432.19;5082483;28;20028;-81
2023/01/12 08:10:31;;;;;;;10.02;5.30;;;;;;;4.07;100.00;100428.72;5076073;28;20426;-79
2023/01/12 08:12:57;;;;;;;12.65;5.45;;;;;;;4.17;100.00;100426.88;5076430;28;20028;-79
2023/01/12 08:15:24;;;;;;;9.77;4.40;;;;;;;4.23;100.00;100419.41;5073893;28;20043;-82
2023/01/12 08:18:21;;;;;;;7.90;4.43;;;;;;;4.38;100.00;100415.72;5057882;28;20138;-82
2023/01/12 08:20:48;;;;;;;11.55;4.47;;;;;;;4.58;100.00;100409.91;5056543;28;20040;-82
2023/01/12 08:23:18;;;;;;;9.75;3.75;;;;;;;4.77;100.00;100408.91;5087477;28;20116;-81
2023/01/12 08:25:53;;;;;;;6.60;3.10;;;;;;;4.86;100.00;100403.38;5061396;28;20085;-80
2023/01/12 08:28:23;;;;;;;10.07;3.15;;;;;;;5.20;100.00;100404.78;5079209;28;20035;-82
2023/01/12 08:30:50;;;;;;;14.02;4.47;;;;;;;5.69;100.00;100405.16;5061943;28;20040;-84
2023/01/12 08:33:26;;;;;;;11.52;3.42;;;;;;;5.86;100.00;100402.94;5077880;28;20468;-86
2023/01/12 08:35:57;;;;;;;8.93;4.53;;;;;;;5.88;100.00;100406.13;5095418;28;20016;-80
2023/01/12 08:38:23;;;;;;;8.10;4.13;;;;;;;5.84;100.00;100409.09;5103377;28;20044;-83
2023/01/12 08:46:19;;;;;;;11.48;5.03;;;;;;;5.72;100.00;100416.38;5102035;28;20137;-82
2023/01/12 08:48:46;;;;;;;8.10;2.92;;;;;;;5.77;100.00;100415.00;5097028;28;20031;-76
2023/01/12 08:51:13;;;;;;;7.13;3.65;;;;;;;5.75;100.00;100412.63;5061751;28;20535;-79
2023/01/12 08:53:38;;;;;;;7.00;3.10;;;;;;;5.81;100.00;100419.28;5096458;28;20030;-80
2023/01/12 08:56:05;;;;;;;9.80;3.25;;;;;;;5.90;100.00;100407.25;5096451;28;20099;-84
2023/01/12 08:58:31;;;;;;;11.18;3.80;;;;;;;5.95;100.00;100417.22;5077920;28;20032;-80
2023/01/12 09:01:08;;;;;;;9.60;4.10;;;;;;;5.99;100.00;100426.41;5077358;28;20495;-82
2023/01/12 09:03:35;;;;;;;9.00;3.60;;;;;;;6.00;100.00;100417.41;5078500;28;20034;-82
2023/01/12 09:06:29;;;;;;;5.80;2.80;;;;;;;6.04;100.00;100417.31;5096525;28;20032;-81
2023/01/12 09:09:11;;;;;;;9.48;3.33;;;;;;;6.13;100.00;100423.88;5092751;28;20486;-81
2023/01/12 09:11:41;;;;;;;8.20;3.10;;;;;;;6.22;100.00;100417.47;5096120;28;20019;-83
2023/01/12 09:14:16;;;;;;;5.68;2.45;;;;;;;6.26;100.00;100412.44;5078366;28;20453;-83
2023/01/12 09:16:42;;;;;;;8.60;2.92;;;;;;;6.31;100.00;100409.06;5096163;28;20381;-83
2023/01/12 09:19:09;;;;;;;11.35;2.60;;;;;;;6.38;100.00;100403.13;5096094;28;20107;-79
2023/01/12 09:21:38;;;;;;;7.25;2.17;;;;;;;6.36;100.00;100394.28;5095618;28;20402;-82
2023/01/12 09:24:06;;;;;;;4.15;2.28;;;;;;;6.50;100.00;100407.94;5077491;28;20032;-81
2023/01/12 09:26:39;;;;;;;3.40;2.25;;;;;;;6.54;100.00;100402.13;5074401;28;20053;-80
2023/01/12 09:29:04;;;;;;;15.18;2.80;;;;;;;6.65;100.00;100396.84;5074534;28;20050;-79
2023/01/12 09:31:32;;;;;;;7.43;3.42;;;;;;;6.68;100.00;100400.81;5074307;28;20055;-80
2023/01/12 09:33:59;;;;;;;9.00;2.65;;;;;;;6.77;100.00;100393.13;5071041;28;20043;-82
2023/01/12 09:36:31;;;;;;;8.63;2.92;;;;;;;6.81;100.00;100398.66;5074327;28;20044;-81
2023/01/12 09:38:57;;;;;;;4.10;2.50;;;;;;;6.89;100.00;100391.44;5075425;28;20118;-84
2023/01/12 09:47:45;;;;;;;8.65;2.40;;;;;;;6.97;100.00;100381.41;5060890;28;20047;-84
2023/01/12 09:50:11;;;;;;;6.10;2.83;;;;;;;7.05;100.00;100397.69;5075571;28;20028;-87
2023/01/12 09:53:06;;;;;;;7.60;2.60;;;;;;;7.05;100.00;100388.38;5075424;28;20024;-85
2023/01/12 09:56:14;;;;;;;13.32;3.22;;;;;;;7.12;100.00;100393.78;5075565;28;20031;-84
2023/01/12 09:59:11;;;;;;;7.72;2.35;;;;;;;7.30;100.00;100398.75;5074047;28;20394;-83
2023/01/12 10:01:38;;;;;;;6.65;2.22;;;;;;;7.60;100.00;100395.03;5075747;28;20483;-83
2023/01/12 10:04:13;;;;;;;15.77;3.85;;;;;;;7.94;100.00;100391.94;5075261;28;20408;-82
2023/01/12 10:06:53;;;;;;;4.72;2.08;;;;;;;8.34;100.00;100391.03;5073845;28;20016;-81
2023/01/12 10:09:20;;;;;;;7.57;2.90;;;;;;;8.60;100.00;100382.94;5074583;28;20417;-83
2023/01/12 10:12:08;;;;;;;7.55;2.28;;;;;;;8.93;100.00;100380.16;5073504;28;20063;-82
2023/01/12 10:14:56;;;;;;;5.43;2.40;;;;;;;9.20;100.00;100375.13;5075491;28;20025;-80
2023/01/12 10:17:29;;;;;;;6.32;2.78;;;;;;;9.49;100.00;100370.88;5074761;28;20077;-79
2023/01/12 10:20:26;;;;;;;5.63;2.40;;;;;;;9.60;100.00;100376.81;5074781;28;20090;-81
2023/01/12 10:23:19;;;;;;;12.40;3.65;;;;;;;9.70;100.00;100372.66;5074996;28;20025;-84
2023/01/12 10:26:01;;;;;;;6.55;2.15;;;;;;;9.72;100.00;100360.75;5076298;28;20051;-80
2023/01/12 10:28:32;;;;;;;8.82;2.33;;;;;;;9.69;100.00;100356.81;5095657;28;20052;-85
2023/01/12 10:30:59;;;;;;;4.15;2.00;;;;;;;9.76;100.00;100352.81;5062073;28;20028;-84
2023/01/12 10:33:31;;;;;;;11.48;2.55;;;;;;;9.76;100.00;100347.91;5043784;28;20115;-84
2023/01/12 10:36:03;;;;;;;5.97;2.10;;;;;;;9.70;100.00;100342.03;5094716;28;20020;-84
2023/01/12 10:38:37;;;;;;;9.00;3.03;;;;;;;9.72;100.00;100347.28;5094476;28;20023;-84
2023/01/12 10:41:15;;;;;;;7.07;2.58;;;;;;;9.65;100.00;100333.38;5094690;28;20380;-86
2023/01/12 10:43:59;;;;;;;7.50;2.97;;;;;;;9.49;100.00;100342.38;5095337;28;20031;-86
2023/01/12 10:46:32;;;;;;;9.60;2.28;;;;;;;9.42;100.00;100339.88;5093047;28;20377;-82
2023/01/12 10:49:22;;;;;;;7.95;3.45;;;;;;;9.30;100.00;100340.91;5075020;28;20024;-85
2023/01/12 10:51:57;;;;;;;9.98;2.65;;;;;;;9.18;100.00;100337.78;5095614;28;20016;-82
2023/01/12 10:54:32;;;;;;;3.20;2.28;;;;;;;9.09;100.00;100319.94;5077349;28;20428;-85
2023/01/12 10:57:18;;;;;;;6.38;2.00;;;;;;;9.02;100.00;100312.50;5095501;28;20023;-82
2023/01/12 10:59:53;;;;;;;6.20;2.20;;;;;;;8.93;100.00;100312.56;5078967;28;20024;-88
2023/01/12 11:02:22;;;;;;;9.25;2.40;;;;;;;8.85;100.00;100299.13;5076230;28;20057;-86
2023/01/12 11:04:53;;;;;;;7.05;2.33;;;;;;;8.71;100.00;100295.69;5078007;28;20040;-85
2023/01/12 11:07:30;;;;;;;6.28;2.50;;;;;;;8.61;100.00;100297.00;5060059;28;20477;-84
2023/01/12 11:10:30;;;;;;;8.35;2.35;;;;;;;8.52;100.00;100276.28;5094255;28;20098;-86
2023/01/12 11:12:59;;;;;;;8.35;2.88;;;;;;;8.49;100.00;100280.91;5076106;28;20043;-87
2023/01/12 11:15:28;;;;;;;5.13;1.88;;;;;;;8.42;100.00;100278.38;5076168;28;20361;-89
2023/01/12 11:18:06;;;;;;;6.20;2.70;;;;;;;8.35;100.00;100267.34;5075820;28;20499;-86
2023/01/12 11:20:59;;;;;;;8.57;2.45;;;;;;;8.31;100.00;100269.56;5093805;28;20039;-85
2023/01/12 11:23:36;;;;;;;4.55;2.05;;;;;;;8.27;100.00;100255.50;5060174;28;20032;-82
2023/01/12 11:26:12;;;;;;;5.75;1.98;;;;;;;8.24;100.00;100253.59;5057915;28;20068;-83
2023/01/12 11:28:42;;;;;;;6.40;2.08;;;;;;;8.22;100.00;100238.25;5056378;28;20373;-83
2023/01/12 11:31:21;;;;;;;5.30;2.00;;;;;;;8.17;100.00;100236.84;5056860;28;20434;-82
2023/01/12 11:34:02;;;;;;;3.45;1.80;;;;;;;8.16;100.00;100237.34;5072830;28;20109;-79
2023/01/12 11:36:36;;;;;;;12.40;3.13;;;;;;;8.15;100.00;100225.16;5055499;28;20051;-80
2023/01/12 11:39:06;;;;;;;14.15;3.35;;;;;;;8.18;100.00;100232.75;5071745;28;20101;-81
2023/01/12 11:41:40;;;;;;;6.70;2.67;;;;;;;8.17;100.00;100228.31;5071239;28;20111;-80
2023/01/12 11:44:25;;;;;;;7.57;2.63;;;;;;;8.18;100.00;100231.94;5052947;28;20165;-81
2023/01/12 11:47:04;;;;;;;6.57;2.08;;;;;;;8.14;100.00;100225.63;5070943;28;20056;-79
2023/01/12 11:50:01;;;;;;;5.63;2.30;;;;;;;8.13;100.00;100235.41;5069358;28;20115;-80
2023/01/12 11:52:26;;;;;;;7.88;1.85;;;;;;;8.14;100.00;100232.09;5071287;28;20059;-80
2023/01/12 11:54:52;;;;;;;5.82;2.00;;;;;;;8.16;100.00;100221.03;5069535;28;20064;-80
2023/01/12 11:57:36;;;;;;;8.52;2.33;;;;;;;8.10;100.00;100222.94;5069617;28;20089;-79
2023/01/12 12:00:07;;;;;;;7.78;2.20;;;;;;;8.12;100.00;100213.91;5070899;28;20036;-80
2023/01/12 12:02:40;;;;;;;5.55;1.50;;;;;;;8.14;100.00;100212.19;5071349;28;20024;-81
2023/01/12 12:05:24;;;;;;;6.65;2.40;;;;;;;8.18;100.00;100207.13;5071574;28;20024;-80
2023/01/12 12:07:55;;;;;;;4.25;2.08;;;;;;;8.16;100.00;100226.72;5073637;28;20071;-81
2023/01/12 12:10:42;;;;;;;2.65;1.50;;;;;;;8.12;100.00;100209.00;5072675;28;20227;-81
2023/01/12 12:13:30;;;;;;;15.38;3.13;;;;;;;8.16;100.00;100195.41;5073844;28;20110;-80